Time;durP1;ratioP1;P1;durP2;ratioP2;P2;SDS_P1;SDS_P2;PMS_P1;PMS_P2;Temp;Humidity;BMP_temperature;BMP_pressure;BME280_temperature;BME280_humidity;BME280_pressure;Samples;Min_cycle;Max_cycle;Signal;HPM_P1;HPM_P2
2022/10/07 00:00:33;;;;;;;4.55;2.28;;;;;;;;;;5053247;28;20201;-60
2022/10/07 00:03:00;;;;;;;5.38;2.33;;;;;;;;;;5053357;28;20198;-60
2022/10/07 00:05:27;;;;;;;9.13;2.58;;;;;;;;;;5053548;28;20222;-60
2022/10/07 00:07:55;;;;;;;7.93;3.25;;;;;;;;;;5053245;28;20706;-60
2022/10/07 00:10:22;;;;;;;8.60;3.33;;;;;;;;;;5053943;28;20292;-60
2022/10/07 00:12:50;;;;;;;8.77;2.50;;;;;;;;;;5054285;28;20213;-61
2022/10/07 00:15:18;;;;;;;7.85;3.20;;;;;;;;;;5053279;28;20229;-59
2022/10/07 00:17:45;;;;;;;8.60;2.70;;;;;;;;;;5053728;28;20216;-59
2022/10/07 00:20:12;;;;;;;5.88;2.90;;;;;;;;;;5053440;28;20228;-60
2022/10/07 00:22:39;;;;;;;9.55;2.95;;;;;;;;;;5053315;28;20228;-60
2022/10/07 00:25:06;;;;;;;9.45;2.67;;;;;;;;;;5054005;28;20587;-60
2022/10/07 00:27:33;;;;;;;3.95;2.95;;;;;;;;;;5057399;28;20205;-60
2022/10/07 00:30:02;;;;;;;8.75;2.70;;;;;;;;;;5057943;28;20206;-63
2022/10/07 00:32:29;;;;;;;4.57;2.80;;;;;;;;;;5057862;28;20224;-60
2022/10/07 00:34:56;;;;;;;4.63;2.58;;;;;;;;;;5057122;28;20693;-62
2022/10/07 00:37:23;;;;;;;5.25;2.40;;;;;;;;;;5057591;28;20206;-62
2022/10/07 00:39:50;;;;;;;4.65;2.28;;;;;;;;;;5057296;28;20692;-59
2022/10/07 00:42:17;;;;;;;6.70;2.30;;;;;;;;;;5057555;28;20209;-60
2022/10/07 00:44:47;;;;;;;12.00;2.33;;;;;;;;;;5057319;28;20252;-61
2022/10/07 00:47:19;;;;;;;6.70;2.63;;;;;;;;;;5057056;28;20202;-61
2022/10/07 00:49:49;;;;;;;13.60;2.67;;;;;;;;;;5057250;28;20642;-61
2022/10/07 00:52:16;;;;;;;5.78;2.35;;;;;;;;;;5057387;28;20207;-61
2022/10/07 00:54:44;;;;;;;6.45;3.75;;;;;;;;;;5057315;28;20640;-61
2022/10/07 00:57:11;;;;;;;3.00;1.67;;;;;;;;;;5057536;28;20274;-60
2022/10/07 00:59:39;;;;;;;9.05;2.65;;;;;;;;;;5057313;28;20209;-61
2022/10/07 01:02:06;;;;;;;7.78;2.25;;;;;;;;;;5057586;28;20205;-60
2022/10/07 01:04:35;;;;;;;5.07;2.45;;;;;;;;;;5057349;28;20225;-60
2022/10/07 01:07:02;;;;;;;4.68;2.38;;;;;;;;;;5056961;28;20209;-59
2022/10/07 01:09:29;;;;;;;5.00;2.22;;;;;;;;;;5056378;28;20601;-61
2022/10/07 01:11:58;;;;;;;5.43;2.10;;;;;;;;;;5056615;28;20198;-61
2022/10/07 01:17:00;;;;;;;6.07;2.40;;;;;;;;;;5063506;28;20289;-59
2022/10/07 01:19:42;;;;;;;4.20;2.33;;;;;;;;;;5065794;28;20634;-60
2022/10/07 01:22:15;;;;;;;5.50;2.30;;;;;;;;;;5065230;28;20216;-60
2022/10/07 01:24:45;;;;;;;6.10;2.40;;;;;;;;;;5065592;28;20222;-61
2022/10/07 01:27:14;;;;;;;7.93;2.50;;;;;;;;;;5062277;28;20228;-60
2022/10/07 01:29:43;;;;;;;2.65;2.00;;;;;;;;;;5062152;28;20205;-59
2022/10/07 01:32:12;;;;;;;6.20;2.20;;;;;;;;;;5061046;28;20236;-61
2022/10/07 01:34:42;;;;;;;3.38;3.00;;;;;;;;;;5062677;28;20218;-60
2022/10/07 01:37:11;;;;;;;3.10;1.88;;;;;;;;;;5058812;28;20301;-61
2022/10/07 01:39:41;;;;;;;5.00;2.65;;;;;;;;;;5057384;28;20205;-61
2022/10/07 01:42:08;;;;;;;6.53;3.20;;;;;;;;;;5058588;28;20210;-60
2022/10/07 01:44:37;;;;;;;9.82;2.70;;;;;;;;;;5060089;28;20205;-61
2022/10/07 01:47:04;;;;;;;7.70;2.15;;;;;;;;;;5057426;28;20576;-60
2022/10/07 01:49:31;;;;;;;2.92;2.25;;;;;;;;;;5057769;28;20201;-60
2022/10/07 01:52:14;;;;;;;3.65;2.13;;;;;;;;;;5057782;28;20209;-59
2022/10/07 01:54:49;;;;;;;3.53;2.30;;;;;;;;;;5057560;28;20592;-59
2022/10/07 01:57:22;;;;;;;5.28;2.40;;;;;;;;;;5056629;28;20197;-59
2022/10/07 02:00:04;;;;;;;4.55;2.80;;;;;;;;;;5059550;28;20186;-59
2022/10/07 02:02:36;;;;;;;8.48;3.00;;;;;;;;;;5057361;28;20190;-60
2022/10/07 02:05:08;;;;;;;11.40;2.55;;;;;;;;;;5057539;28;20689;-60
2022/10/07 02:07:38;;;;;;;4.78;2.28;;;;;;;;;;5058794;28;20193;-62
2022/10/07 02:10:10;;;;;;;7.30;2.50;;;;;;;;;;5058117;28;20225;-61
2022/10/07 02:12:39;;;;;;;7.18;2.63;;;;;;;;;;5057062;28;20188;-60
2022/10/07 02:15:10;;;;;;;4.75;2.60;;;;;;;;;;5056210;28;20234;-60
2022/10/07 02:17:40;;;;;;;8.45;2.85;;;;;;;;;;5055855;28;20186;-60
2022/10/07 02:20:09;;;;;;;6.20;2.47;;;;;;;;;;5055235;28;20191;-61
2022/10/07 02:22:37;;;;;;;3.70;1.80;;;;;;;;;;5055091;28;20212;-61
2022/10/07 02:25:04;;;;;;;7.78;2.63;;;;;;;;;;5055171;28;20214;-62
2022/10/07 02:27:35;;;;;;;5.07;2.50;;;;;;;;;;5054916;28;20198;-61
2022/10/07 02:30:05;;;;;;;4.63;2.40;;;;;;;;;;5054857;28;20560;-60
2022/10/07 02:32:34;;;;;;;6.20;3.15;;;;;;;;;;5054588;28;20673;-60
2022/10/07 02:35:05;;;;;;;15.02;3.20;;;;;;;;;;5055020;28;20228;-60
2022/10/07 02:37:35;;;;;;;9.02;2.55;;;;;;;;;;5055531;28;20197;-60
2022/10/07 02:40:03;;;;;;;8.73;2.67;;;;;;;;;;5055522;28;20255;-60
2022/10/07 02:42:32;;;;;;;5.90;2.58;;;;;;;;;;5054785;28;20673;-61
2022/10/07 02:45:01;;;;;;;5.63;2.58;;;;;;;;;;5054592;28;20234;-62
2022/10/07 02:47:33;;;;;;;4.93;2.80;;;;;;;;;;5054648;28;20201;-61
2022/10/07 02:50:04;;;;;;;8.90;3.00;;;;;;;;;;5053187;28;20193;-61
2022/10/07 02:52:33;;;;;;;5.72;2.95;;;;;;;;;;5054455;28;20183;-60
2022/10/07 02:55:03;;;;;;;6.60;2.97;;;;;;;;;;5054339;28;20218;-60
2022/10/07 02:57:31;;;;;;;5.00;2.60;;;;;;;;;;5054312;28;20201;-60
2022/10/07 02:59:59;;;;;;;6.60;3.40;;;;;;;;;;5054372;28;20201;-61
2022/10/07 03:02:30;;;;;;;5.20;2.60;;;;;;;;;;5054151;28;20206;-60
2022/10/07 03:04:58;;;;;;;6.10;3.00;;;;;;;;;;5053892;28;20596;-60
2022/10/07 03:07:27;;;;;;;9.70;2.50;;;;;;;;;;5054327;28;20210;-60
2022/10/07 03:09:55;;;;;;;8.32;2.67;;;;;;;;;;5054243;28;20198;-61
2022/10/07 03:12:22;;;;;;;5.32;2.85;;;;;;;;;;5054024;28;20293;-61
2022/10/07 03:14:49;;;;;;;4.80;2.80;;;;;;;;;;5053874;28;20237;-60
2022/10/07 03:17:16;;;;;;;3.75;2.05;;;;;;;;;;5054448;28;20268;-61
2022/10/07 03:19:43;;;;;;;3.25;2.55;;;;;;;;;;5053992;28;20205;-60
2022/10/07 03:22:10;;;;;;;5.25;2.45;;;;;;;;;;5053915;28;20224;-60
2022/10/07 03:24:39;;;;;;;4.85;2.58;;;;;;;;;;5053428;28;20197;-61
2022/10/07 03:27:07;;;;;;;7.05;2.90;;;;;;;;;;5053494;28;20297;-62
2022/10/07 03:29:35;;;;;;;8.27;4.07;;;;;;;;;;5053397;28;20692;-60
2022/10/07 03:32:02;;;;;;;6.35;2.88;;;;;;;;;;5053508;28;20665;-60
2022/10/07 03:34:30;;;;;;;6.80;2.78;;;;;;;;;;5053720;28;20646;-60
2022/10/07 03:36:57;;;;;;;7.90;3.15;;;;;;;;;;5053322;28;20720;-62
2022/10/07 03:39:24;;;;;;;3.92;2.60;;;;;;;;;;5053624;28;20220;-61
2022/10/07 03:41:53;;;;;;;3.60;2.90;;;;;;;;;;5053502;28;20206;-61
2022/10/07 03:44:21;;;;;;;3.42;3.05;;;;;;;;;;5058211;28;20206;-62
2022/10/07 03:46:49;;;;;;;6.15;3.00;;;;;;;;;;5055914;28;20198;-60
2022/10/07 03:49:16;;;;;;;6.57;2.92;;;;;;;;;;5053342;28;20202;-60
2022/10/07 03:51:43;;;;;;;5.80;3.50;;;;;;;;;;5052958;28;20669;-60
2022/10/07 03:54:10;;;;;;;9.23;3.50;;;;;;;;;;5053439;28;20205;-62
2022/10/07 03:56:37;;;;;;;7.30;3.40;;;;;;;;;;5053024;28;20236;-62
2022/10/07 03:59:06;;;;;;;9.52;3.20;;;;;;;;;;5053370;28;20228;-60
2022/10/07 04:01:33;;;;;;;6.30;3.00;;;;;;;;;;5052602;28;20205;-62
2022/10/07 04:04:00;;;;;;;4.65;3.10;;;;;;;;;;5053294;28;20202;-60
2022/10/07 04:06:27;;;;;;;4.60;2.88;;;;;;;;;;5053238;28;20222;-62
2022/10/07 04:10:24;;;;;;;7.63;3.90;;;;;;;;;;5152507;27;20972;-60
2022/10/07 04:12:52;;;;;;;6.72;3.95;;;;;;;;;;5152536;27;20204;-60
2022/10/07 04:15:19;;;;;;;6.68;3.75;;;;;;;;;;5152484;27;20242;-62
2022/10/07 04:17:47;;;;;;;6.65;3.95;;;;;;;;;;5152699;27;20202;-60
2022/10/07 04:20:15;;;;;;;7.13;3.42;;;;;;;;;;5152617;27;20198;-62
2022/10/07 04:22:43;;;;;;;8.73;3.20;;;;;;;;;;5152885;27;20202;-62
2022/10/07 04:27:58;;;;;;;9.50;3.65;;;;;;;;;;5152702;27;20173;-61
2022/10/07 04:30:26;;;;;;;6.75;3.67;;;;;;;;;;5152489;27;20229;-61
2022/10/07 04:32:53;;;;;;;6.15;3.78;;;;;;;;;;5152093;27;20209;-61
2022/10/07 04:35:21;;;;;;;5.25;3.63;;;;;;;;;;5152198;27;20214;-62
2022/10/07 04:37:48;;;;;;;6.93;4.55;;;;;;;;;;5152429;27;20202;-60
2022/10/07 04:40:15;;;;;;;4.95;3.58;;;;;;;;;;5152403;27;20194;-60
2022/10/07 04:45:35;;;;;;;6.10;3.65;;;;;;;;;;5135874;27;20293;-62
2022/10/07 04:48:02;;;;;;;5.05;3.90;;;;;;;;;;5152442;27;20199;-61
2022/10/07 04:50:30;;;;;;;5.78;3.95;;;;;;;;;;5153736;27;20195;-60
2022/10/07 04:52:57;;;;;;;5.15;3.72;;;;;;;;;;5155073;27;20266;-60
2022/10/07 04:55:25;;;;;;;6.32;3.90;;;;;;;;;;5152714;27;20230;-60
2022/10/07 04:57:52;;;;;;;8.43;3.95;;;;;;;;;;5152125;27;20285;-60
2022/10/07 05:00:19;;;;;;;5.43;3.50;;;;;;;;;;5151513;27;20544;-62
2022/10/07 05:02:49;;;;;;;6.60;3.90;;;;;;;;;;5151398;27;20674;-61
2022/10/07 05:05:17;;;;;;;7.15;4.10;;;;;;;;;;5152061;27;20229;-61
2022/10/07 05:07:44;;;;;;;6.22;3.80;;;;;;;;;;5152100;27;20674;-60
2022/10/07 05:10:11;;;;;;;8.63;4.22;;;;;;;;;;5151113;27;20222;-60
2022/10/07 05:12:39;;;;;;;8.45;4.45;;;;;;;;;;5151787;27;20198;-62
2022/10/07 05:15:07;;;;;;;8.15;3.97;;;;;;;;;;5151956;27;20275;-62
2022/10/07 05:17:34;;;;;;;7.13;4.13;;;;;;;;;;5149534;27;20285;-63
2022/10/07 05:20:03;;;;;;;7.18;4.05;;;;;;;;;;5145846;27;20192;-60
2022/10/07 05:22:30;;;;;;;5.90;3.80;;;;;;;;;;5137173;27;20233;-61
2022/10/07 05:24:58;;;;;;;10.55;3.80;;;;;;;;;;5137224;27;20211;-60
2022/10/07 05:27:25;;;;;;;17.63;4.28;;;;;;;;;;5138212;27;20634;-61
2022/10/07 05:29:52;;;;;;;8.63;3.72;;;;;;;;;;5137450;27;20305;-60
2022/10/07 05:32:20;;;;;;;7.57;4.03;;;;;;;;;;5136856;27;20199;-60
2022/10/07 05:34:47;;;;;;;7.13;3.67;;;;;;;;;;5135238;27;20300;-61
2022/10/07 05:37:15;;;;;;;9.05;3.80;;;;;;;;;;5137054;27;20287;-62
2022/10/07 05:39:42;;;;;;;5.10;3.17;;;;;;;;;;5136848;27;20559;-61
2022/10/07 05:42:12;;;;;;;7.00;4.32;;;;;;;;;;5136409;27;20203;-61
2022/10/07 05:44:39;;;;;;;4.85;3.50;;;;;;;;;;5130268;27;20724;-60
2022/10/07 05:47:06;;;;;;;5.72;3.83;;;;;;;;;;5138443;27;20205;-61
2022/10/07 05:49:34;;;;;;;6.13;3.88;;;;;;;;;;5137182;27;20629;-61
2022/10/07 05:52:02;;;;;;;9.15;3.90;;;;;;;;;;5136163;27;20199;-60
2022/10/07 05:54:31;;;;;;;6.38;3.80;;;;;;;;;;5136436;27;20199;-60
2022/10/07 05:56:59;;;;;;;8.98;3.95;;;;;;;;;;5136600;27;20270;-60
2022/10/07 05:59:26;;;;;;;7.07;3.78;;;;;;;;;;5136544;27;20223;-61
2022/10/07 06:01:55;;;;;;;8.38;3.90;;;;;;;;;;5136555;27;20210;-62
2022/10/07 06:04:22;;;;;;;7.22;3.53;;;;;;;;;;5136963;27;20199;-60
2022/10/07 06:06:49;;;;;;;18.08;3.88;;;;;;;;;;5138073;27;20567;-59
2022/10/07 06:15:08;;;;;;;7.70;3.65;;;;;;;;;;5109984;27;20226;-63
2022/10/07 06:17:35;;;;;;;5.90;3.67;;;;;;;;;;5141296;27;20215;-61
2022/10/07 06:20:02;;;;;;;8.95;3.65;;;;;;;;;;5141092;27;20187;-61
2022/10/07 06:22:29;;;;;;;8.52;3.70;;;;;;;;;;5141034;27;20210;-62
2022/10/07 06:24:59;;;;;;;7.82;4.35;;;;;;;;;;5136897;27;20230;-61
2022/10/07 06:27:28;;;;;;;7.30;3.65;;;;;;;;;;5137047;27;20297;-63
2022/10/07 06:29:55;;;;;;;8.32;3.30;;;;;;;;;;5137201;27;20221;-63
2022/10/07 06:32:22;;;;;;;5.45;3.40;;;;;;;;;;5137976;27;20223;-62
2022/10/07 06:34:49;;;;;;;6.78;3.28;;;;;;;;;;5135789;27;20709;-61
2022/10/07 06:37:16;;;;;;;4.60;3.00;;;;;;;;;;5135944;27;20218;-60
2022/10/07 06:39:43;;;;;;;8.07;3.55;;;;;;;;;;5135519;27;20213;-61
2022/10/07 06:42:10;;;;;;;6.88;3.25;;;;;;;;;;5135372;27;20195;-63
2022/10/07 06:44:39;;;;;;;22.23;6.43;;;;;;;;;;5135148;27;20209;-63
2022/10/07 06:47:06;;;;;;;7.72;3.53;;;;;;;;;;5135222;27;20206;-62
2022/10/07 06:49:33;;;;;;;7.32;3.95;;;;;;;;;;5135148;27;20203;-61
2022/10/07 06:52:00;;;;;;;7.60;3.70;;;;;;;;;;5135137;27;20295;-63
2022/10/07 06:54:27;;;;;;;11.38;3.17;;;7.30;99.90;;;;;;5135384;27;20673;-63
2022/10/07 06:56:54;;;;;;;7.38;3.40;;;8.80;99.90;;;;;;5135100;27;20212;-62
2022/10/07 06:59:20;;;;;;;5.75;3.85;;;8.90;99.90;;;;;;5134698;27;20191;-62
2022/10/07 07:01:48;;;;;;;5.65;3.20;;;9.00;99.90;;;;;;5135393;27;20199;-62
2022/10/07 07:04:15;;;;;;;7.65;3.30;;;9.10;99.90;;;;;;5134765;27;20191;-62
2022/10/07 07:06:43;;;;;;;7.00;3.42;;;9.20;99.90;;;;;;5135168;27;20289;-64
2022/10/07 07:09:10;;;;;;;5.47;3.47;;;9.30;99.90;;;;;;5134632;27;20223;-61
2022/10/07 07:11:39;;;;;;;6.85;2.90;;;9.40;99.90;;;;;;5134936;27;20484;-62
2022/10/07 07:14:07;;;;;;;5.13;3.10;;;9.50;99.90;;;;;;5134877;27;20207;-62
2022/10/07 07:16:34;;;;;;;5.90;3.05;;;9.60;99.90;;;;;;5141463;22;20224;-62
2022/10/07 07:19:06;;;;;;;3.88;2.30;;;9.70;99.90;;;;;;5095834;28;20200;-61
2022/10/07 07:21:33;;;;;;;7.63;3.58;;;9.80;99.90;;;;;;5095826;28;20184;-61
2022/10/07 07:24:01;;;;;;;7.88;3.10;;;9.80;99.90;;;;;;5095552;28;20200;-62
2022/10/07 07:26:28;;;;;;;4.57;2.83;;;9.90;99.90;;;;;;5097794;28;20220;-63
2022/10/07 07:28:58;;;;;;;7.43;3.47;;;10.10;99.90;;;;;;5098260;28;20200;-62
2022/10/07 07:31:25;;;;;;;6.68;3.00;;;10.20;99.90;;;;;;5096393;28;20631;-62
2022/10/07 07:33:52;;;;;;;6.43;2.65;;;10.30;99.90;;;;;;5095962;28;20204;-63
2022/10/07 07:36:22;;;;;;;6.03;3.17;;;10.40;99.90;;;;;;5096203;28;20617;-63
2022/10/07 07:38:51;;;;;;;9.60;3.25;;;10.50;99.90;;;;;;5096563;28;20188;-63
2022/10/07 07:41:19;;;;;;;5.30;3.93;;;10.60;99.90;;;;;;5095252;28;20202;-63
2022/10/07 07:43:50;;;;;;;8.75;2.80;;;10.70;99.90;;;;;;5094449;28;20500;-63
2022/10/07 07:46:17;;;;;;;6.20;3.60;;;10.80;99.90;;;;;;5093975;28;20220;-62
2022/10/07 07:48:45;;;;;;;5.27;3.50;;;10.90;99.90;;;;;;5094260;28;20255;-62
2022/10/07 07:51:12;;;;;;;6.20;2.93;;;;;;;;;;5094671;28;20539;-62
2022/10/07 07:53:40;;;;;;;3.60;2.40;;;;;;;;;;5094487;28;20446;-63
2022/10/07 07:56:08;;;;;;;15.07;2.80;;;;;;;;;;5094582;28;20461;-63
2022/10/07 07:58:35;;;;;;;8.37;3.27;;;;;;;;;;5094252;28;20446;-63
2022/10/07 08:01:03;;;;;;;5.87;2.60;;;;;;;;;;5093967;28;20443;-63
2022/10/07 08:03:30;;;;;;;4.70;2.37;;;;;;;;;;5094985;28;20455;-62
2022/10/07 08:06:00;;;;;;;5.87;3.17;;;;;;;;;;5093938;28;20458;-63
2022/10/07 08:08:27;;;;;;;5.10;2.13;;;;;;;;;;5094258;28;20898;-63
2022/10/07 08:10:56;;;;;;;5.57;3.10;;;;;;;;;;5094228;28;21035;-62
2022/10/07 08:13:24;;;;;;;5.87;2.60;;;;;;;;;;5094232;28;20446;-62
2022/10/07 08:15:56;;;;;;;4.87;2.30;;;;;;;;;;5093603;28;21001;-62
2022/10/07 08:18:23;;;;;;;6.83;2.87;;;;;;;;;;5094148;28;20422;-63
2022/10/07 08:20:56;;;;;;;5.10;2.50;;;;;;;;;;5095416;28;20465;-63
2022/10/07 08:23:25;;;;;;;8.37;2.70;;;;;;;;;;5094666;28;20426;-62
2022/10/07 08:25:53;;;;;;;4.03;2.27;;;;;;;;;;5093629;28;20508;-63
2022/10/07 08:28:22;;;;;;;6.90;2.23;;;;;;;;;;5093349;28;20439;-62
2022/10/07 08:30:50;;;;;;;4.60;2.20;;;;;;;;;;5093045;28;20493;-63
2022/10/07 08:33:17;;;;;;;6.20;1.83;;;;;;;;;;5093096;28;20442;-63
2022/10/07 08:35:44;;;;;;;6.17;2.60;;;;;;;;;;5093041;28;20470;-63
2022/10/07 08:38:11;;;;;;;3.27;2.07;;;;;;;;;;5093748;28;20446;-66
2022/10/07 08:40:46;;;;;;;5.50;2.00;;;;;;;;;;5094461;28;20441;-62
2022/10/07 08:43:13;;;;;;;7.50;2.77;;;;;;;;;;5093578;28;20517;-63
2022/10/07 08:45:41;;;;;;;6.13;1.73;;;;;;;;;;5093405;28;20446;-63
2022/10/07 08:48:13;;;;;;;10.73;2.70;;;;;;;;;;5093276;28;20449;-63
2022/10/07 08:50:46;;;;;;;3.57;2.27;;;;;;;;;;5093360;28;20463;-62
2022/10/07 08:53:16;;;;;;;4.77;1.77;;;;;;;;;;5093223;28;20434;-64
2022/10/07 08:55:46;;;;;;;6.00;2.33;;;;;;;;;;5094541;28;20473;-63
2022/10/07 08:58:27;;;;;;;3.40;1.70;;;;;;;;;;5097312;28;20487;-63
2022/10/07 09:00:59;;;;;;;8.00;2.27;;;;;;;;;;5097871;28;20426;-63
2022/10/07 09:03:35;;;;;;;6.93;2.27;;;;;;;;;;5097999;28;20434;-62
2022/10/07 09:06:04;;;;;;;8.07;2.23;;;;;;;;;;5096507;28;20484;-63
2022/10/07 09:08:34;;;;;;;6.20;2.20;;;;;;;;;;5096667;28;20499;-63
2022/10/07 09:11:14;;;;;;;5.07;2.33;;;;;;;;;;5096123;28;20592;-63
2022/10/07 09:13:45;;;;;;;4.70;1.70;;;;;;;;;;5096172;28;20783;-63
2022/10/07 09:16:15;;;;;;;4.23;1.87;;;;;;;;;;5096189;28;20473;-63
2022/10/07 09:18:44;;;;;;;6.83;1.90;;;;;;;;;;5096809;28;20453;-63
2022/10/07 09:21:15;;;;;;;6.37;2.57;;;;;;;;;;5096879;28;20461;-64
2022/10/07 09:23:43;;;;;;;6.93;1.90;;;;;;;;;;5096666;28;20443;-63
2022/10/07 09:26:11;;;;;;;9.30;2.17;;;;;;;;;;5095829;28;20458;-63
2022/10/07 09:28:38;;;;;;;3.90;1.60;;;;;;;;;;5096232;28;20451;-63
2022/10/07 09:31:06;;;;;;;4.53;2.63;;;;;;;;;;5095771;28;20485;-63
2022/10/07 09:33:36;;;;;;;5.63;2.20;;;;;;;;;;5095919;28;20439;-64
2022/10/07 09:36:06;;;;;;;7.20;2.00;;;;;;;;;;5095519;28;20987;-63
2022/10/07 09:38:34;;;;;;;3.90;1.77;;;;;;;;;;5096113;28;20438;-63
2022/10/07 09:41:18;;;;;;;8.10;2.33;;;;;;;;;;5096196;28;20454;-63
2022/10/07 09:43:59;;;;;;;6.10;1.70;;;;;;;;;;5095802;28;20977;-64
2022/10/07 09:46:34;;;;;;;4.87;2.50;;;;;;;;;;5095392;28;20513;-63
2022/10/07 09:49:04;;;;;;;7.43;2.03;;;;;;;;;;5095344;28;20794;-63
2022/10/07 09:51:31;;;;;;;6.17;1.90;;;;;;;;;;5095755;28;20474;-63
2022/10/07 09:54:01;;;;;;;6.40;2.67;;;;;;;;;;5095118;28;20998;-63
2022/10/07 09:56:46;;;;;;;4.87;1.90;;;;;;;;;;5095492;28;20478;-63
2022/10/07 09:59:21;;;;;;;5.40;1.97;;;;;;;;;;5095062;28;20912;-63
2022/10/07 10:01:52;;;;;;;7.17;2.43;;;;;;;;;;5096142;28;20442;-63
2022/10/07 10:04:24;;;;;;;4.70;2.00;;;;;;;;;;5095375;28;20906;-63
2022/10/07 10:06:51;;;;;;;5.40;1.90;;;;;;;;;;5095321;28;20458;-63
2022/10/07 10:09:21;;;;;;;4.80;1.80;;;;;;;;;;5095562;28;20434;-62
2022/10/07 10:12:00;;;;;;;6.60;1.80;;;;;;;;;;5096493;28;20489;-63
2022/10/07 10:14:28;;;;;;;6.50;1.90;;;;;;;;;;5096456;28;20435;-62
2022/10/07 10:16:55;;;;;;;4.47;2.40;;;;;;;;;;5094979;28;20485;-62
2022/10/07 10:19:26;;;;;;;6.03;2.20;;;;;;;;;;5095610;28;20442;-63
2022/10/07 10:21:55;;;;;;;5.90;1.80;;;;;;;;;;5095889;28;20442;-63
2022/10/07 10:26:24;;;;;;;7.97;2.57;;;;;;;;;;5099573;28;20469;-62
2022/10/07 10:27:12;;;;;;;8.60;2.00;;;;;;;;;;5096870;28;20891;-62
2022/10/07 10:29:46;;;;;;;5.70;2.00;;;;;;;;;;5097137;28;20442;-63
2022/10/07 10:32:29;;;;;;;6.50;2.10;;;;;;;;;;5097637;28;20438;-62
2022/10/07 10:35:01;;;;;;;7.93;2.30;;;;;;;;;;5098344;28;20422;-62
2022/10/07 10:37:36;;;;;;;6.23;1.90;;;;;;;;;;5095069;28;20462;-63
2022/10/07 10:40:08;;;;;;;5.83;1.70;;;;;;;;;;5094965;28;20430;-63
2022/10/07 10:42:39;;;;;;;4.30;1.73;;;;;;;;;;5094863;28;20900;-61
2022/10/07 10:45:15;;;;;;;5.27;2.00;;;;;;;;;;5095561;28;20437;-64
2022/10/07 10:47:48;;;;;;;5.47;2.10;;;;;;;;;;5096055;28;20541;-63
2022/10/07 10:50:23;;;;;;;7.73;1.30;;;;;;;;;;5095703;28;20465;-63
2022/10/07 10:52:57;;;;;;;5.13;1.43;;;;;;;;;;5095509;28;20426;-64
2022/10/07 10:55:33;;;;;;;5.80;2.17;;;;;;;;;;5097133;28;20418;-63
2022/10/07 10:58:05;;;;;;;5.90;1.87;;;;;;;;;;5099338;28;20501;-62
2022/10/07 11:00:36;;;;;;;5.10;1.40;;;;;;;;;;5100474;28;20415;-62
2022/10/07 11:03:11;;;;;;;6.17;2.10;;;;;;;;;;5098134;28;20778;-62
2022/10/07 11:05:41;;;;;;;9.07;2.10;;;;;;;;;;5101044;28;20429;-63
2022/10/07 11:08:11;;;;;;;6.03;2.00;;;;;;;;;;5101106;28;20541;-62
2022/10/07 11:10:41;;;;;;;6.80;1.80;;;;;;;;;;5100707;28;20478;-62
2022/10/07 11:13:17;;;;;;;10.23;2.37;;;;;;;;;;5101037;28;20997;-62
2022/10/07 11:15:47;;;;;;;2.97;1.60;;;;;;;;;;5095971;28;20539;-62
2022/10/07 11:18:20;;;;;;;6.27;2.00;;;;;;;;;;5095109;28;20430;-63
2022/10/07 11:20:49;;;;;;;6.23;2.07;;;;;;;;;;5095171;28;20772;-62
2022/10/07 11:23:21;;;;;;;8.97;2.00;;;;;;;;;;5095147;28;20805;-63
2022/10/07 11:25:51;;;;;;;8.60;2.23;;;;;;;;;;5094364;28;20462;-62
2022/10/07 11:28:21;;;;;;;3.80;1.70;;;;;;;;;;5094789;28;20469;-62
2022/10/07 11:30:52;;;;;;;2.67;1.60;;;;;;;;;;5095002;28;20553;-63
2022/10/07 11:33:23;;;;;;;4.40;1.80;;;;;;;;;;5094558;28;20427;-63
2022/10/07 11:35:54;;;;;;;5.93;2.20;;;;;;;;;;5093919;28;20466;-64
2022/10/07 11:38:23;;;;;;;6.00;1.83;;;;;;;;;;5094325;28;20497;-63
2022/10/07 11:40:52;;;;;;;4.67;1.50;;;;;;;;;;5094268;28;20442;-63
2022/10/07 11:43:21;;;;;;;4.70;1.67;;;;;;;;;;5093521;28;20442;-62
2022/10/07 11:45:51;;;;;;;7.00;2.53;;;;;;;;;;5094235;28;20466;-62
2022/10/07 11:48:20;;;;;;;3.07;1.80;;;;;;;;;;5094308;28;20827;-63
2022/10/07 11:50:49;;;;;;;5.30;1.60;;;;;;;;;;5093678;28;20569;-62
2022/10/07 11:53:20;;;;;;;8.47;2.27;;;;;;;;;;5093400;28;20446;-62
2022/10/07 11:55:50;;;;;;;3.43;1.30;;;;;;;;;;5094061;28;20474;-63
2022/10/07 11:58:24;;;;;;;8.17;2.10;;;;;;;;;;5094337;28;20446;-62
2022/10/07 12:00:51;;;;;;;9.50;2.50;;;;;;;;;;5093752;28;20423;-63
2022/10/07 12:03:33;;;;;;;5.93;2.30;;;;;;;;;;5093907;28;20538;-63
2022/10/07 12:06:10;;;;;;;6.30;2.27;;;;;;;;;;5092849;28;20466;-63
2022/10/07 12:08:40;;;;;;;5.67;1.53;;;;;;;;;;5093463;28;20909;-62
2022/10/07 12:11:26;;;;;;;5.90;1.60;;;;;;;;;;5094016;28;20470;-62
2022/10/07 12:13:53;;;;;;;4.93;1.63;;;;;;;;;;5094609;28;20439;-63
2022/10/07 12:16:44;;;;;;;5.23;1.90;;;;;;;;;;5094227;28;20969;-64
2022/10/07 12:19:18;;;;;;;2.63;1.50;;;;;;;;;;5078335;28;20446;-63
2022/10/07 12:22:04;;;;;;;3.80;1.87;;;;;;;;;;5093085;28;20489;-62
2022/10/07 12:24:34;;;;;;;6.37;1.70;;;;;;;;;;5093177;28;20526;-63
2022/10/07 12:27:07;;;;;;;3.20;1.50;;;;;;;;;;5093294;28;20458;-61
2022/10/07 12:29:57;;;;;;;5.60;2.43;;;;;;;;;;5093183;28;20906;-62
2022/10/07 12:32:59;;;;;;;7.77;1.87;;;;;;;;;;5097498;28;20497;-63
2022/10/07 12:35:47;;;;;;;4.73;1.63;;;;;;;;;;5098104;28;20433;-63
2022/10/07 12:38:18;;;;;;;4.77;2.13;;;;;;;;;;5097217;28;20442;-63
2022/10/07 12:40:49;;;;;;;6.57;1.80;;;;;;;;;;5097121;28;20423;-63
2022/10/07 12:43:22;;;;;;;3.70;1.40;;;;;;;;;;5097598;28;20442;-64
2022/10/07 12:45:50;;;;;;;5.40;2.10;;;;;;;;;;5097471;28;20469;-62
2022/10/07 12:48:20;;;;;;;8.83;2.30;;;;;;;;;;5097144;28;20852;-63
2022/10/07 12:50:47;;;;;;;6.70;1.93;;;;;;;;;;5097067;28;20513;-63
2022/10/07 12:53:14;;;;;;;3.00;1.70;;;;;;;;;;5098599;28;20552;-61
2022/10/07 12:55:44;;;;;;;7.40;2.37;;;;;;;;;;5096995;28;20816;-62
2022/10/07 13:01:13;;;;;;;5.63;2.07;;;;;;;;;;5096550;28;20509;-61
2022/10/07 13:03:51;;;;;;;4.87;2.07;;;;;;;;;;5096370;28;20470;-63
2022/10/07 13:06:33;;;;;;;5.10;1.70;;;;;;;;;;5096281;28;20496;-63
2022/10/07 13:09:14;;;;;;;3.53;1.40;;;;;;;;;;5094103;28;20458;-63
2022/10/07 13:12:02;;;;;;;10.17;2.10;;;;;;;;;;5095354;28;20466;-62
2022/10/07 13:14:33;;;;;;;4.33;2.40;;;;;;;;;;5096063;28;20418;-63
2022/10/07 13:17:02;;;;;;;8.30;2.40;;;;;;;;;;5096220;28;20892;-63
2022/10/07 13:19:35;;;;;;;7.30;1.90;;;;;;;;;;5086942;28;20435;-62
2022/10/07 13:22:07;;;;;;;6.63;1.60;;;;;;;;;;5076172;28;20430;-62
2022/10/07 13:24:34;;;;;;;4.10;2.10;;;;;;;;;;5084233;28;20462;-62
2022/10/07 13:27:01;;;;;;;4.63;1.83;;;;;;;;;;5095821;28;20844;-63
2022/10/07 13:29:29;;;;;;;6.90;2.20;;;;;;;;;;5096220;28;20449;-62
2022/10/07 13:32:05;;;;;;;7.43;3.00;;;;;;;;;;5096078;28;20473;-62
2022/10/07 13:34:32;;;;;;;4.73;1.60;;;;;;;;;;5096228;28;20976;-61
2022/10/07 13:36:59;;;;;;;9.00;2.10;;;;;;;;;;5095988;28;20481;-63
2022/10/07 13:39:26;;;;;;;8.50;2.10;;;;;;;;;;5095523;28;20882;-63
2022/10/07 13:41:55;;;;;;;7.07;2.00;;;;;;;;;;5110928;22;20499;-63
2022/10/07 13:44:22;;;;;;;6.73;1.83;;;;;;;;;;5056103;28;20452;-63
2022/10/07 13:46:54;;;;;;;5.03;1.53;;;;;;;;;;5047938;28;20529;-62
2022/10/07 13:49:25;;;;;;;5.13;2.27;;;;;;;;;;5036130;28;20862;-62
2022/10/07 13:51:52;;;;;;;6.00;2.27;;;;;;;;;;5035936;28;20484;-62
2022/10/07 13:54:21;;;;;;;5.37;1.47;;;;;;;;;;5036199;28;20445;-61
2022/10/07 13:56:49;;;;;;;2.93;1.70;;;;;;;;;;5036489;28;20575;-63
2022/10/07 13:59:17;;;;;;;5.57;1.70;;;;;;;;;;5036134;28;20829;-61
2022/10/07 14:01:45;;;;;;;2.50;1.40;;;;;;;;;;5045151;28;20460;-61
2022/10/07 14:04:20;;;;;;;5.17;1.70;;;;;;;;;;5055340;28;20455;-61
2022/10/07 14:06:52;;;;;;;4.53;1.90;;;;;;;;;;5055593;28;20819;-62
2022/10/07 14:09:25;;;;;;;7.67;1.60;;;;;;;;;;5055648;28;20433;-62
2022/10/07 14:11:54;;;;;;;7.83;2.60;;;;;;;;;;5056324;28;20483;-62
2022/10/07 14:14:23;;;;;;;4.00;1.47;;;;;;;;;;5057290;28;20472;-61
2022/10/07 14:16:55;;;;;;;5.23;1.60;;;;;;;;;;5056503;28;20456;-62
2022/10/07 14:19:22;;;;;;;7.67;1.60;;;;;;;;;;5056408;28;20429;-62
2022/10/07 14:21:51;;;;;;;3.50;1.57;;;;;;;;;;5055930;28;20972;-62
2022/10/07 14:24:20;;;;;;;5.43;1.97;;;;;;;;;;5055979;28;20827;-62
2022/10/07 14:26:47;;;;;;;5.60;1.87;;;;;;;;;;5057038;28;20490;-61
2022/10/07 14:29:34;;;;;;;4.07;1.63;;;;;;;;;;5054990;28;20948;-62
2022/10/07 14:37:33;;;;;;;5.37;1.80;;;;;;;;;;5055736;28;20408;-62
2022/10/07 14:40:00;;;;;;;5.73;1.63;;;;;;;;;;5056023;28;20449;-61
2022/10/07 14:42:28;;;;;;;5.30;1.87;;;;;;;;;;5041710;28;20472;-62
2022/10/07 14:44:55;;;;;;;8.83;2.10;;;;;;;;;;5035129;28;20446;-62
2022/10/07 14:47:23;;;;;;;5.67;1.90;;;;;;;;;;5035482;28;20460;-61
2022/10/07 14:49:51;;;;;;;4.80;1.93;;;;;;;;;;5035981;28;20475;-60
2022/10/07 14:52:20;;;;;;;6.73;1.87;;;;;;;;;;5035412;28;20480;-61
2022/10/07 14:54:49;;;;;;;4.37;1.80;;;;;;;;;;5035309;28;20461;-61
2022/10/07 14:57:16;;;;;;;4.20;1.60;;;;;;;;;;5035557;28;20518;-62
2022/10/07 14:59:44;;;;;;;3.97;1.63;;;;;;;;;;5035483;28;20456;-61
2022/10/07 15:02:12;;;;;;;5.83;1.60;;;;;;;;;;5035235;28;20551;-60
2022/10/07 15:04:39;;;;;;;5.93;2.07;;;;;;;;;;5035329;28;20441;-61
2022/10/07 15:07:06;;;;;;;5.73;2.00;;;;;;;;;;5036271;28;20449;-62
2022/10/07 15:09:33;;;;;;;4.90;1.63;;;;;;;;;;5035977;28;21002;-61
2022/10/07 15:12:02;;;;;;;4.90;1.90;;;;;;;;;;5035766;28;20826;-62